Time;durP1;ratioP1;P1;durP2;ratioP2;P2;SDS_P1;SDS_P2;PMS_P1;PMS_P2;Temp;Humidity;BMP_temperature;BMP_pressure;BME280_temperature;BME280_humidity;BME280_pressure;Samples;Min_cycle;Max_cycle;Signal;HPM_P1;HPM_P2
2022/07/21 00:02:21;;;;;;;3.63;2.65;;;27.20;95.60;;;;;;5089441;28;20460;-71
2022/07/21 00:04:50;;;;;;;4.20;2.53;;;27.20;95.70;;;;;;5092995;28;20066;-71
2022/07/21 00:07:18;;;;;;;4.30;2.70;;;27.20;96.00;;;;;;5093494;28;20394;-71
2022/07/21 00:09:46;;;;;;;5.85;2.42;;;27.30;95.70;;;;;;5075315;28;20062;-71
2022/07/21 00:12:13;;;;;;;7.20;2.90;;;27.30;95.70;;;;;;5093411;28;20048;-71
2022/07/21 00:14:41;;;;;;;6.63;2.58;;;27.30;95.70;;;;;;5093678;28;20040;-71
2022/07/21 00:17:09;;;;;;;4.47;3.08;;;27.30;95.70;;;;;;5075591;28;20062;-71
2022/07/21 00:19:36;;;;;;;4.43;3.25;;;27.30;95.70;;;;;;5075449;28;20076;-72
2022/07/21 00:22:04;;;;;;;5.05;2.42;;;27.30;95.70;;;;;;5074145;28;20494;-71
2022/07/21 00:24:31;;;;;;;4.93;2.75;;;27.30;95.80;;;;;;5093408;28;20139;-71
2022/07/21 00:26:59;;;;;;;4.13;2.55;;;27.30;95.80;;;;;;5075559;28;20044;-72
2022/07/21 00:29:26;;;;;;;3.72;2.40;;;27.30;95.80;;;;;;5075034;28;20051;-72
2022/07/21 00:31:54;;;;;;;5.63;2.40;;;27.30;95.80;;;;;;5091696;28;20088;-71
2022/07/21 00:34:21;;;;;;;4.60;3.10;;;27.30;95.70;;;;;;5091804;28;20051;-71
2022/07/21 00:36:49;;;;;;;4.30;2.80;;;27.30;95.70;;;;;;5091831;28;20040;-71
2022/07/21 00:39:16;;;;;;;8.07;2.80;;;27.30;95.80;;;;;;5091896;28;20036;-72
2022/07/21 00:41:44;;;;;;;4.45;2.47;;;27.20;95.80;;;;;;5074441;28;20147;-71
2022/07/21 00:44:26;;;;;;;4.10;2.88;;;27.20;95.90;;;;;;5091652;28;20473;-71
2022/07/21 00:46:54;;;;;;;9.25;3.00;;;27.20;95.90;;;;;;5091942;28;20040;-72
2022/07/21 00:49:21;;;;;;;6.68;2.72;;;27.20;96.00;;;;;;5057972;28;20486;-71
2022/07/21 00:51:49;;;;;;;4.97;2.58;;;27.20;95.90;;;;;;5058521;28;20064;-71
2022/07/21 00:54:18;;;;;;;4.57;2.78;;;27.10;95.90;;;;;;5058138;28;20063;-72
2022/07/21 00:56:47;;;;;;;6.35;3.03;;;27.10;95.90;;;;;;5058882;28;20134;-71
2022/07/21 00:59:15;;;;;;;6.13;3.28;;;27.10;96.00;;;;;;5091293;28;20056;-71
2022/07/21 01:01:42;;;;;;;6.28;3.70;;;27.00;96.10;;;;;;5090416;28;20048;-71
2022/07/21 01:04:10;;;;;;;4.65;3.17;;;27.00;96.30;;;;;;5091122;28;20044;-71
2022/07/21 01:06:38;;;;;;;7.25;3.55;;;26.90;96.30;;;;;;5074776;28;20089;-72
2022/07/21 01:09:05;;;;;;;5.10;3.13;;;26.90;96.50;;;;;;5092683;28;20174;-71
2022/07/21 01:11:38;;;;;;;4.28;2.97;;;26.90;96.50;;;;;;5091967;28;20044;-71
2022/07/21 01:14:06;;;;;;;5.13;2.90;;;26.80;96.60;;;;;;5073690;28;20403;-72
2022/07/21 01:16:33;;;;;;;4.22;3.53;;;26.80;96.90;;;;;;5074289;28;20059;-71
2022/07/21 01:19:01;;;;;;;6.68;2.78;;;26.80;96.60;;;;;;5074089;28;20048;-71
2022/07/21 01:21:32;;;;;;;4.63;3.10;;;26.70;96.60;;;;;;5057669;28;20589;-72
2022/07/21 01:24:00;;;;;;;4.78;3.10;;;26.60;96.60;;;;;;5074230;28;20044;-72
2022/07/21 01:26:29;;;;;;;6.70;3.25;;;26.60;96.60;;;;;;5073896;28;20139;-72
2022/07/21 01:28:57;;;;;;;5.72;2.78;;;26.50;96.60;;;;;;5074384;28;20126;-71
2022/07/21 01:31:25;;;;;;;5.03;3.85;;;26.50;96.60;;;;;;5090296;28;20128;-71
2022/07/21 01:33:53;;;;;;;4.43;3.15;;;26.40;96.70;;;;;;5074069;28;20086;-71
2022/07/21 01:36:20;;;;;;;8.70;4.15;;;26.40;96.70;;;;;;5090436;28;20545;-71
2022/07/21 01:41:34;;;;;;;7.57;4.75;;;26.30;96.80;;;;;;5091521;28;20052;-71
2022/07/21 01:44:07;;;;;;;4.32;3.72;;;26.30;96.70;;;;;;5091375;28;20778;-71
2022/07/21 01:46:38;;;;;;;6.78;4.28;;;26.30;96.70;;;;;;5090634;28;20044;-71
2022/07/21 01:49:06;;;;;;;6.78;3.75;;;26.30;96.80;;;;;;5073826;28;20052;-72
2022/07/21 01:51:34;;;;;;;9.23;4.47;;;26.20;96.80;;;;;;5073278;28;20117;-72
2022/07/21 01:54:02;;;;;;;6.20;4.05;;;26.20;96.80;;;;;;5074635;28;20508;-71
2022/07/21 01:56:30;;;;;;;6.25;4.38;;;26.10;96.80;;;;;;5090086;28;20044;-71
2022/07/21 01:58:57;;;;;;;7.10;4.10;;;26.10;96.90;;;;;;5092025;28;20101;-71
2022/07/21 02:01:27;;;;;;;7.10;4.22;;;26.10;97.00;;;;;;5089885;28;20138;-72
2022/07/21 02:03:56;;;;;;;5.53;4.05;;;26.10;97.00;;;;;;5090217;28;20044;-72
2022/07/21 02:06:24;;;;;;;9.00;4.25;;;26.00;97.20;;;;;;5073434;28;20075;-71
2022/07/21 02:08:52;;;;;;;4.60;3.00;;;26.00;97.40;;;;;;5073604;28;20052;-71
2022/07/21 02:11:20;;;;;;;5.68;3.00;;;26.10;97.70;;;;;;5090378;28;20192;-71
2022/07/21 02:13:48;;;;;;;5.82;3.53;;;26.10;97.80;;;;;;5091207;28;20139;-71
2022/07/21 02:16:16;;;;;;;4.68;2.97;;;26.20;98.10;;;;;;5073863;28;20117;-73
2022/07/21 02:18:44;;;;;;;5.43;3.03;;;26.20;98.20;;;;;;5092893;28;20394;-71
2022/07/21 02:21:12;;;;;;;8.30;3.63;;;26.20;98.20;;;;;;5093331;28;20044;-71
2022/07/21 02:23:40;;;;;;;4.60;3.58;;;26.20;98.20;;;;;;5109085;28;20058;-71
2022/07/21 02:26:07;;;;;;;5.68;2.92;;;26.30;98.30;;;;;;5106450;28;20048;-71
2022/07/21 02:28:35;;;;;;;5.57;3.22;;;26.30;98.30;;;;;;5093493;28;20104;-71
2022/07/21 02:31:03;;;;;;;8.23;3.53;;;26.30;98.30;;;;;;5093404;28;20382;-71
2022/07/21 02:33:31;;;;;;;5.30;3.00;;;26.30;98.30;;;;;;5092958;28;20092;-71
2022/07/21 02:35:59;;;;;;;4.88;3.40;;;26.30;98.30;;;;;;5111234;28;20783;-72
2022/07/21 02:38:26;;;;;;;4.35;2.90;;;26.30;98.30;;;;;;5109804;28;20073;-71
2022/07/21 02:40:54;;;;;;;5.13;3.15;;;26.30;98.30;;;;;;5109880;28;20496;-71
2022/07/21 02:43:23;;;;;;;6.35;3.22;;;26.30;98.30;;;;;;5109934;28;20515;-72
2022/07/21 02:45:51;;;;;;;6.20;2.80;;;26.30;98.30;;;;;;5092008;28;20571;-72
2022/07/21 02:48:19;;;;;;;5.80;3.65;;;26.30;98.30;;;;;;5072457;28;20167;-72
2022/07/21 02:50:47;;;;;;;3.47;2.83;;;26.20;98.10;;;;;;5089543;28;20043;-71
2022/07/21 02:53:19;;;;;;;5.13;3.25;;;26.20;98.00;;;;;;5090660;28;20093;-71
2022/07/21 02:55:48;;;;;;;6.32;3.67;;;26.20;97.90;;;;;;5072836;28;20055;-71
2022/07/21 02:58:22;;;;;;;9.07;3.45;;;26.30;97.70;;;;;;5089120;28;20048;-71
2022/07/21 03:00:49;;;;;;;3.88;3.35;;;26.30;97.60;;;;;;5090921;28;20401;-71
2022/07/21 03:03:18;;;;;;;4.78;3.00;;;26.20;97.50;;;;;;5083926;28;20528;-71
2022/07/21 03:05:46;;;;;;;4.53;3.03;;;26.30;97.40;;;;;;5109582;28;20731;-71
2022/07/21 03:08:14;;;;;;;4.32;2.42;;;26.30;97.20;;;;;;5109717;28;20050;-72
2022/07/21 03:10:42;;;;;;;5.95;3.83;;;26.30;97.10;;;;;;5092869;28;20058;-71
2022/07/21 03:13:10;;;;;;;3.45;2.45;;;26.30;96.80;;;;;;5109369;28;20058;-71
2022/07/21 03:15:38;;;;;;;5.07;2.80;;;26.40;96.60;;;;;;5092256;28;20140;-71
2022/07/21 03:18:06;;;;;;;5.63;2.90;;;26.40;96.40;;;;;;5092807;28;20514;-71
2022/07/21 03:20:36;;;;;;;5.97;3.00;;;26.40;96.30;;;;;;5092114;28;20408;-71
2022/07/21 03:23:04;;;;;;;3.50;2.58;;;26.40;96.10;;;;;;5075728;28;20112;-72
2022/07/21 03:25:32;;;;;;;7.32;3.22;;;26.40;95.90;;;;;;5110327;28;20043;-71
2022/07/21 03:28:00;;;;;;;4.03;3.17;;;26.40;96.00;;;;;;5109299;28;20412;-71
2022/07/21 03:30:28;;;;;;;5.75;3.50;;;26.40;95.60;;;;;;5110625;28;20067;-71
2022/07/21 03:32:56;;;;;;;4.38;3.05;;;26.40;95.50;;;;;;5075600;28;20074;-71
2022/07/21 03:35:24;;;;;;;4.55;3.03;;;26.40;95.50;;;;;;5091751;28;20047;-71
2022/07/21 03:37:54;;;;;;;4.80;3.05;;;26.40;95.50;;;;;;5111997;28;20078;-71
2022/07/21 03:40:24;;;;;;;19.85;3.70;;;26.40;95.40;;;;;;5112989;28;20552;-71
2022/07/21 03:42:56;;;;;;;6.47;3.80;;;26.40;95.40;;;;;;5113318;28;20090;-71
2022/07/21 03:45:26;;;;;;;6.22;2.50;;;26.40;95.40;;;;;;5091899;28;20048;-71
2022/07/21 03:47:53;;;;;;;5.63;2.60;;;26.40;95.30;;;;;;5093781;28;20040;-71
2022/07/21 03:50:21;;;;;;;4.60;2.78;;;26.40;95.20;;;;;;5076090;28;20040;-72
2022/07/21 03:52:48;;;;;;;3.78;2.47;;;26.40;95.20;;;;;;5092622;28;20052;-71
2022/07/21 03:55:18;;;;;;;3.95;2.67;;;26.40;95.00;;;;;;5059630;28;20044;-71
2022/07/21 03:57:49;;;;;;;4.35;2.72;;;26.50;95.00;;;;;;5092896;28;20052;-71
2022/07/21 04:00:22;;;;;;;4.60;2.60;;;26.50;94.90;;;;;;5058974;28;20063;-71
2022/07/21 04:02:50;;;;;;;3.95;2.97;;;26.50;94.70;;;;;;5093982;28;20501;-72
2022/07/21 04:05:19;;;;;;;3.97;2.78;;;26.60;94.60;;;;;;5092553;28;20051;-71
2022/07/21 04:07:49;;;;;;;4.25;2.70;;;26.60;94.40;;;;;;5091410;28;20149;-71
2022/07/21 04:10:24;;;;;;;5.68;3.20;;;26.60;94.20;;;;;;5058313;28;20052;-71
2022/07/21 04:12:51;;;;;;;4.82;2.47;;;26.60;94.20;;;;;;5091660;28;20124;-71
2022/07/21 04:15:19;;;;;;;7.60;2.83;;;26.70;94.10;;;;;;5093549;28;20119;-71
2022/07/21 04:17:48;;;;;;;4.45;2.55;;;26.70;93.90;;;;;;5093444;28;20044;-71
2022/07/21 04:20:17;;;;;;;3.58;2.33;;;26.80;93.80;;;;;;5058852;28;20052;-71
2022/07/21 04:22:46;;;;;;;5.07;2.55;;;26.80;93.80;;;;;;5075496;28;20032;-71
2022/07/21 04:25:15;;;;;;;5.35;2.60;;;26.90;93.60;;;;;;5058883;28;20048;-71
2022/07/21 04:27:44;;;;;;;4.55;2.30;;;26.90;93.50;;;;;;5074923;28;20922;-71
2022/07/21 04:30:14;;;;;;;3.78;2.42;;;27.00;93.40;;;;;;5075528;28;20063;-70
2022/07/21 04:32:42;;;;;;;4.03;2.85;;;27.10;93.20;;;;;;5092459;28;20051;-70
2022/07/21 04:35:11;;;;;;;4.18;2.53;;;27.20;93.10;;;;;;5093407;28;20027;-69
2022/07/21 04:37:39;;;;;;;4.85;2.55;;;27.30;92.90;;;;;;5073258;28;20075;-72
2022/07/21 04:40:08;;;;;;;4.05;2.70;;;27.40;92.90;;;;;;5084751;28;20425;-71
2022/07/21 04:42:36;;;;;;;7.53;3.03;;;27.50;92.70;;;;;;5093081;28;20070;-70
2022/07/21 04:45:06;;;;;;;12.23;3.15;;;27.50;92.40;;;;;;5073890;28;20052;-71
2022/07/21 04:47:52;;;;;;;3.80;3.03;;;27.70;91.90;;;;;;5089571;28;20044;-70
2022/07/21 04:50:23;;;;;;;5.10;2.78;;;27.80;91.50;;;;;;5088749;28;20036;-71
2022/07/21 04:52:51;;;;;;;7.78;2.75;;;27.90;91.30;;;;;;5089658;28;20055;-71
2022/07/21 04:55:20;;;;;;;7.28;4.07;;;28.00;91.00;;;;;;5090497;28;20486;-71
2022/07/21 04:57:50;;;;;;;5.13;2.83;;;28.10;90.80;;;;;;5074095;28;20076;-71
2022/07/21 05:00:21;;;;;;;7.55;2.65;;;28.20;90.40;;;;;;5090377;28;20044;-71
2022/07/21 05:02:49;;;;;;;4.88;2.78;;;28.30;90.20;;;;;;5090991;28;20082;-71
2022/07/21 05:05:17;;;;;;;4.03;2.53;;;28.40;89.90;;;;;;5091271;28;20044;-71
2022/07/21 05:07:45;;;;;;;8.60;2.55;;;28.50;89.50;;;;;;5089795;28;20064;-71
2022/07/21 05:10:14;;;;;;;6.30;2.72;;;28.60;89.00;;;;;;5090400;28;20151;-71
2022/07/21 05:12:42;;;;;;;3.50;2.45;;;28.70;88.80;;;;;;5071330;28;20055;-71
2022/07/21 05:15:11;;;;;;;3.08;2.60;;;28.80;88.20;;;;;;5094587;28;20051;-72
2022/07/21 05:17:40;;;;;;;6.60;2.75;;;29.00;87.60;;;;;;5094054;28;20101;-72
2022/07/21 05:20:09;;;;;;;5.45;3.13;;;29.00;87.10;;;;;;5111361;28;20046;-71
2022/07/21 05:22:37;;;;;;;5.97;3.22;;;29.20;86.60;;;;;;5093989;28;20052;-71
2022/07/21 05:25:05;;;;;;;6.72;2.90;;;29.30;86.40;;;;;;5111205;28;20042;-71
2022/07/21 05:27:34;;;;;;;5.57;3.20;;;29.50;86.20;;;;;;5094293;28;20075;-71
2022/07/21 05:30:03;;;;;;;3.70;2.92;;;29.50;85.30;;;;;;5094763;28;20043;-72
2022/07/21 05:32:32;;;;;;;3.65;2.95;;;29.60;84.40;;;;;;5108606;28;20100;-71
2022/07/21 05:34:59;;;;;;;6.03;3.20;;;29.70;84.20;;;;;;5094295;28;20090;-71
2022/07/21 05:37:27;;;;;;;5.70;2.80;;;29.80;83.80;;;;;;5094005;28;20043;-72
2022/07/21 05:39:55;;;;;;;4.55;3.28;;;29.90;83.40;;;;;;5111177;28;20476;-71
2022/07/21 05:42:22;;;;;;;7.63;3.63;;;30.00;83.00;;;;;;5093753;28;20059;-71
2022/07/21 05:44:50;;;;;;;5.28;3.35;;;30.10;82.50;;;;;;5110694;28;20081;-72
2022/07/21 05:47:18;;;;;;;3.95;2.70;;;30.20;82.20;;;;;;5093924;28;20054;-71
2022/07/21 05:49:45;;;;;;;6.05;2.97;;;30.30;81.70;;;;;;5110963;28;20044;-71
2022/07/21 05:52:13;;;;;;;6.32;2.95;;;30.50;81.60;;;;;;5093088;28;20051;-72
2022/07/21 05:54:41;;;;;;;6.57;2.90;;;30.50;80.90;;;;;;5109539;28;20047;-72
2022/07/21 05:57:09;;;;;;;4.80;3.33;;;30.70;79.80;;;;;;5110463;28;20051;-71
2022/07/21 05:59:37;;;;;;;5.72;2.78;;;30.80;79.50;;;;;;5110528;28;20532;-71
2022/07/21 06:02:06;;;;;;;5.78;2.83;;;30.90;78.80;;;;;;5076914;28;20044;-72
2022/07/21 06:04:34;;;;;;;7.55;3.45;;;31.00;78.20;;;;;;5093719;28;20043;-71
2022/07/21 06:07:03;;;;;;;4.05;2.72;;;31.10;78.00;;;;;;5111915;28;20075;-72
2022/07/21 06:09:31;;;;;;;5.40;3.00;;;31.20;78.10;;;;;;5093487;28;20091;-71
2022/07/21 06:11:59;;;;;;;6.50;2.83;;;31.20;77.90;;;;;;5110344;28;20043;-71
2022/07/21 06:14:27;;;;;;;3.85;2.88;;;31.40;78.10;;;;;;5093350;28;20585;-72
2022/07/21 06:16:54;;;;;;;6.38;3.53;;;31.50;77.30;;;;;;5076193;28;20046;-72
2022/07/21 06:19:22;;;;;;;4.35;2.75;;;31.60;77.20;;;;;;5091696;28;20047;-71
2022/07/21 06:21:52;;;;;;;5.43;3.33;;;31.70;76.80;;;;;;5111281;28;20039;-71
2022/07/21 06:24:22;;;;;;;3.58;2.63;;;31.80;76.50;;;;;;5076420;28;20467;-72
2022/07/21 06:26:50;;;;;;;5.32;2.88;;;31.80;76.30;;;;;;5110232;28;20046;-72
2022/07/21 06:29:18;;;;;;;5.35;3.03;;;31.90;76.50;;;;;;5110287;28;20051;-71
2022/07/21 06:31:45;;;;;;;6.32;2.85;;;32.00;76.50;;;;;;5110083;28;20493;-72
2022/07/21 06:34:13;;;;;;;7.65;3.05;;;32.10;76.40;;;;;;5110103;28;20075;-71
2022/07/21 06:36:41;;;;;;;4.72;2.90;;;32.10;76.10;;;;;;5110280;28;20407;-71
2022/07/21 06:39:12;;;;;;;5.25;3.63;;;32.20;75.90;;;;;;5076536;28;20047;-72
2022/07/21 06:41:40;;;;;;;5.10;3.70;;;32.30;75.80;;;;;;5109354;28;20083;-71
2022/07/21 06:44:12;;;;;;;6.40;3.70;;;32.30;75.20;;;;;;5110726;28;20185;-72
2022/07/21 06:46:40;;;;;;;7.32;5.80;;;32.40;75.40;;;;;;5111070;28;20127;-71
2022/07/21 06:49:07;;;;;;;5.28;4.38;;;32.50;75.60;;;;;;5109511;28;20118;-71
2022/07/21 06:51:36;;;;;;;6.40;5.05;;;32.50;75.50;;;;;;5109705;28;20455;-71
2022/07/21 06:54:04;;;;;;;6.38;4.75;;;32.60;74.60;;;;;;5092896;28;20536;-71
2022/07/21 06:56:31;;;;;;;5.55;4.30;;;32.70;74.30;;;;;;5109290;28;20048;-72
2022/07/21 06:59:01;;;;;;;6.82;4.00;;;32.80;73.70;;;;;;5109986;28;20067;-71
2022/07/21 07:01:29;;;;;;;5.97;3.97;;;32.80;74.00;;;;;;5109951;28;20047;-71
2022/07/21 07:03:56;;;;;;;6.07;4.53;;;32.90;73.50;;;;;;5092638;28;20092;-71
2022/07/21 07:06:24;;;;;;;6.80;4.47;;;33.00;72.80;;;;;;5092936;28;20051;-72
2022/07/21 07:08:51;;;;;;;3.90;3.20;;;33.10;73.10;;;;;;5092619;28;20126;-71
2022/07/21 07:11:19;;;;;;;4.70;3.33;;;33.20;72.80;;;;;;5109731;28;20509;-71
2022/07/21 07:13:47;;;;;;;5.93;3.33;;;33.20;72.20;;;;;;5103339;28;20083;-72
2022/07/21 07:16:23;;;;;;;5.18;3.55;;;33.30;71.70;;;;;;5076845;28;20124;-71
2022/07/21 07:18:51;;;;;;;4.72;3.22;;;33.40;72.00;;;;;;5076551;28;20075;-72
2022/07/21 07:21:18;;;;;;;5.35;3.08;;;33.50;71.20;;;;;;5076692;28;20406;-72
2022/07/21 07:23:46;;;;;;;3.95;3.13;;;33.50;70.90;;;;;;5076058;28;20047;-72
2022/07/21 07:26:14;;;;;;;5.95;2.50;;;33.60;71.20;;;;;;5093147;28;20143;-72
2022/07/21 07:28:42;;;;;;;3.90;3.15;;;33.70;70.70;;;;;;5076615;28;20060;-72
2022/07/21 07:31:10;;;;;;;6.22;3.28;;;33.70;70.40;;;;;;5076693;28;20146;-71
2022/07/21 07:33:38;;;;;;;12.90;3.90;;;33.70;70.90;;;;;;5093767;28;20513;-71
2022/07/21 07:36:10;;;;;;;12.77;3.90;;;33.80;71.20;;;;;;5059658;28;20060;-71
2022/07/21 07:38:39;;;;;;;7.22;3.17;;;33.80;69.80;;;;;;5074898;28;20101;-73
2022/07/21 07:41:07;;;;;;;7.70;3.15;;;33.90;68.90;;;;;;5093307;28;20052;-72
2022/07/21 07:43:35;;;;;;;7.20;3.15;;;34.00;68.70;;;;;;5093908;28;20040;-72
2022/07/21 07:46:04;;;;;;;7.30;2.95;;;34.10;68.60;;;;;;5092381;28;20047;-72
2022/07/21 07:48:34;;;;;;;6.97;2.90;;;34.20;68.10;;;;;;5075917;28;20048;-72
2022/07/21 07:51:01;;;;;;;3.88;2.63;;;34.30;69.00;;;;;;5076162;28;20098;-72
2022/07/21 07:53:29;;;;;;;6.18;3.30;;;34.30;69.40;;;;;;5092333;28;20105;-71
2022/07/21 07:55:57;;;;;;;5.97;3.03;;;34.30;70.60;;;;;;5094010;28;20044;-71
2022/07/21 07:58:25;;;;;;;4.18;2.95;;;34.30;70.90;;;;;;5092458;28;20052;-72
2022/07/21 08:00:53;;;;;;;6.05;2.80;;;34.00;69.20;;;;;;5093842;28;20089;-71
2022/07/21 08:03:23;;;;;;;5.00;2.40;;;34.10;70.30;;;;;;5091858;28;20048;-72
2022/07/21 08:05:53;;;;;;;6.45;2.75;;;34.20;70.10;;;;;;5085025;28;20048;-72
2022/07/21 08:08:21;;;;;;;5.38;2.42;;;34.20;69.30;;;;;;5092668;28;20116;-72
2022/07/21 08:10:49;;;;;;;4.57;2.55;;;34.30;69.30;;;;;;5093723;28;20044;-72
2022/07/21 08:13:17;;;;;;;3.78;2.83;;;34.30;70.10;;;;;;5093593;28;20048;-72
2022/07/21 08:15:46;;;;;;;3.80;3.08;;;34.40;70.30;;;;;;5092019;28;20055;-72
2022/07/21 08:18:15;;;;;;;4.28;3.20;;;34.50;70.40;;;;;;5074807;28;20051;-72
2022/07/21 08:20:46;;;;;;;5.22;3.10;;;34.50;70.30;;;;;;5075369;28;20189;-72
2022/07/21 08:23:14;;;;;;;3.38;2.60;;;34.60;71.10;;;;;;5091915;28;20117;-71
2022/07/21 08:25:43;;;;;;;4.20;2.83;;;34.50;72.20;;;;;;5058507;28;20052;-72
2022/07/21 08:28:11;;;;;;;5.90;2.72;;;34.60;72.80;;;;;;5074914;28;20051;-71
2022/07/21 08:30:39;;;;;;;5.90;3.13;;;34.60;72.50;;;;;;5091554;28;20063;-72
2022/07/21 08:33:07;;;;;;;5.72;2.90;;;34.50;73.10;;;;;;5075130;28;20044;-71
2022/07/21 08:35:34;;;;;;;3.35;2.30;;;34.40;73.10;;;;;;5091715;28;20070;-72
2022/07/21 08:38:07;;;;;;;3.65;2.30;;;34.30;73.40;;;;;;5091480;28;20036;-71
2022/07/21 08:40:40;;;;;;;3.30;2.72;;;34.20;73.80;;;;;;5091651;28;20047;-72
2022/07/21 08:43:09;;;;;;;4.50;2.72;;;34.10;73.90;;;;;;5074838;28;20048;-72
2022/07/21 08:45:37;;;;;;;5.22;3.08;;;34.10;74.00;;;;;;5074959;28;20048;-72
2022/07/21 08:48:06;;;;;;;5.93;3.53;;;34.10;74.40;;;;;;5075184;28;20807;-72
2022/07/21 08:50:37;;;;;;;5.22;2.85;;;34.10;74.00;;;;;;5075040;28;20075;-72
2022/07/21 08:53:06;;;;;;;5.50;2.63;;;34.30;73.80;;;;;;5091755;28;20060;-73
2022/07/21 08:55:40;;;;;;;4.40;2.50;;;34.30;73.70;;;;;;5092573;28;20071;-72
2022/07/21 08:58:10;;;;;;;6.75;2.65;;;34.50;73.20;;;;;;5074792;28;20091;-72
2022/07/21 09:00:39;;;;;;;4.80;2.90;;;34.50;72.30;;;;;;5091665;28;20106;-72
2022/07/21 09:03:24;;;;;;;3.42;2.55;;;34.50;72.80;;;;;;5090958;28;20089;-73
2022/07/21 09:06:00;;;;;;;5.18;2.70;;;34.30;72.00;;;;;;5110167;28;20116;-73
2022/07/21 09:08:32;;;;;;;4.22;2.88;;;34.30;72.60;;;;;;5110954;28;20055;-73
2022/07/21 09:11:18;;;;;;;4.43;2.38;;;34.30;72.50;;;;;;5111360;28;20068;-72
2022/07/21 09:13:51;;;;;;;6.18;2.97;;;34.30;72.30;;;;;;5094176;28;20078;-72
2022/07/21 09:16:39;;;;;;;5.30;2.45;;;34.40;72.10;;;;;;5094211;28;20043;-71
2022/07/21 09:19:14;;;;;;;4.68;2.78;;;34.50;71.40;;;;;;5094570;28;20051;-71
2022/07/21 09:21:42;;;;;;;2.97;2.55;;;34.60;71.40;;;;;;5094339;28;20044;-72
2022/07/21 09:24:32;;;;;;;6.28;2.53;;;34.70;71.20;;;;;;5093785;28;20520;-72
2022/07/21 09:27:06;;;;;;;4.30;2.40;;;34.70;70.80;;;;;;5094715;28;20444;-71
2022/07/21 09:29:56;;;;;;;5.07;2.40;;;34.80;70.90;;;;;;5110853;28;20043;-72
2022/07/21 09:32:31;;;;;;;5.75;2.70;;;34.80;69.70;;;;;;5094466;28;20754;-72
2022/07/21 09:34:58;;;;;;;;;;;34.90;69.70;;;;;;5111564;28;20146;-72
2022/07/21 09:37:29;;;;;;;4.72;2.80;;;35.00;67.00;;;;;;5093935;28;19927;-71
2022/07/21 09:40:00;;;;;;;3.83;2.42;;;35.10;67.30;;;;;;5094020;28;20051;-71
2022/07/21 09:42:33;;;;;;;3.88;2.88;;;35.20;66.90;;;;;;5110235;28;20058;-72
2022/07/21 09:45:08;;;;;;;3.40;2.20;;;35.10;67.30;;;;;;5110902;28;20410;-72
2022/07/21 09:47:39;;;;;;;5.13;2.38;;;35.20;67.20;;;;;;5076881;28;20056;-73
2022/07/21 09:50:13;;;;;;;3.85;2.38;;;35.10;67.60;;;;;;5093781;28;20039;-72
2022/07/21 09:53:02;;;;;;;8.75;2.28;;;35.20;66.50;;;;;;5093933;28;20052;-71
2022/07/21 09:55:31;;;;;;;3.13;2.03;;;35.20;65.00;;;;;;5110478;28;20040;-72
2022/07/21 09:57:59;;;;;;;2.53;2.03;;;35.10;65.80;;;;;;5094054;28;20066;-72
2022/07/21 10:00:27;;;;;;;5.40;2.67;;;35.10;65.70;;;;;;5077009;28;20097;-72
2022/07/21 10:02:56;;;;;;;3.78;2.03;;;35.10;65.70;;;;;;5111233;28;20134;-71
2022/07/21 10:05:25;;;;;;;5.20;1.92;;;35.20;65.10;;;;;;5077276;28;20062;-73
2022/07/21 10:08:01;;;;;;;3.90;2.28;;;35.20;64.70;;;;;;5091320;28;20141;-72
2022/07/21 10:10:29;;;;;;;4.13;2.15;;;35.30;64.10;;;;;;5089844;28;20063;-71
2022/07/21 10:13:12;;;;;;;5.25;2.83;;;35.40;63.10;;;;;;5089777;28;20063;-72
2022/07/21 10:15:40;;;;;;;4.57;2.25;;;35.50;62.70;;;;;;5072770;28;20052;-72
2022/07/21 10:18:13;;;;;;;3.88;1.92;;;35.50;60.90;;;;;;5073524;28;20047;-72
2022/07/21 10:20:47;;;;;;;7.35;2.55;;;35.50;59.90;;;;;;5091148;28;20072;-72
2022/07/21 10:23:41;;;;;;;4.30;1.90;;;35.50;59.30;;;;;;5089530;28;20451;-72
2022/07/21 10:26:11;;;;;;;3.75;2.38;;;35.50;59.60;;;;;;5089759;28;20097;-72
2022/07/21 10:28:40;;;;;;;2.95;2.05;;;35.50;59.40;;;;;;5056931;28;20055;-72
2022/07/21 10:31:20;;;;;;;4.10;2.60;;;35.50;59.20;;;;;;5089090;28;20520;-72
2022/07/21 10:33:48;;;;;;;3.13;1.85;;;35.60;58.70;;;;;;5089387;28;20044;-71
2022/07/21 10:36:37;;;;;;;3.50;2.05;;;35.60;58.00;;;;;;5072184;28;20113;-72
2022/07/21 10:39:19;;;;;;;5.00;2.20;;;35.70;58.10;;;;;;5089719;28;20201;-71
2022/07/21 10:41:49;;;;;;;4.22;2.20;;;35.50;58.60;;;;;;5072311;28;20398;-72
2022/07/21 10:44:30;;;;;;;3.30;1.95;;;35.50;58.10;;;;;;5072490;28;20055;-72
2022/07/21 10:47:09;;;;;;;3.92;1.80;;;35.40;58.10;;;;;;5055229;28;20408;-71
2022/07/21 10:49:43;;;;;;;3.53;2.20;;;35.50;58.20;;;;;;5055896;28;20540;-73
2022/07/21 10:52:35;;;;;;;5.43;3.00;;;35.40;58.80;;;;;;5071960;28;20044;-72
2022/07/21 10:55:10;;;;;;;3.83;1.90;;;35.40;58.80;;;;;;5097102;28;20409;-71
2022/07/21 10:57:40;;;;;;;3.53;2.10;;;35.50;59.50;;;;;;5092970;28;20458;-72
2022/07/21 11:00:27;;;;;;;3.42;1.90;;;35.40;59.90;;;;;;5108840;28;20062;-72
2022/07/21 11:03:00;;;;;;;5.53;2.20;;;35.40;59.00;;;;;;5110594;28;20501;-72
2022/07/21 11:05:33;;;;;;;5.60;2.42;;;35.40;59.10;;;;;;5109249;28;20763;-71
2022/07/21 11:08:15;;;;;;;4.13;2.05;;;35.40;59.50;;;;;;5092772;28;20108;-71
2022/07/21 11:10:49;;;;;;;3.90;2.30;;;35.30;59.60;;;;;;5092645;28;20126;-72
2022/07/21 11:13:19;;;;;;;7.70;2.67;;;35.40;62.40;;;;;;5075977;28;20055;-73
2022/07/21 11:15:52;;;;;;;4.65;2.10;;;35.20;61.30;;;;;;5110379;28;20497;-72
2022/07/21 11:18:25;;;;;;;6.03;2.55;;;35.20;62.00;;;;;;5109147;28;20130;-72
2022/07/21 11:21:13;;;;;;;2.50;2.15;;;35.20;62.70;;;;;;5108928;28;20048;-72
2022/07/21 11:23:47;;;;;;;3.88;1.80;;;35.20;62.30;;;;;;5092524;28;20036;-72
2022/07/21 11:26:18;;;;;;;2.40;1.55;;;35.20;61.90;;;;;;5092311;28;20405;-72
2022/07/21 11:28:46;;;;;;;4.38;1.88;;;35.20;62.10;;;;;;5075125;28;20142;-71
2022/07/21 11:31:18;;;;;;;3.38;2.17;;;35.10;62.80;;;;;;5108257;28;20035;-72
2022/07/21 11:33:48;;;;;;;3.47;1.90;;;35.00;62.90;;;;;;5108925;28;20509;-72
2022/07/21 11:36:25;;;;;;;3.17;2.10;;;35.10;63.10;;;;;;5108804;28;20104;-72
2022/07/21 11:39:05;;;;;;;4.47;3.08;;;35.00;62.50;;;;;;5091756;28;20044;-72
2022/07/21 11:41:36;;;;;;;3.58;2.55;;;35.00;62.10;;;;;;5091915;28;20087;-73
2022/07/21 11:44:05;;;;;;;6.43;2.47;;;34.80;62.30;;;;;;5109448;28;20054;-72
2022/07/21 11:46:51;;;;;;;4.70;2.53;;;34.80;62.50;;;;;;5092250;28;20044;-72
2022/07/21 11:49:20;;;;;;;5.88;2.25;;;34.80;62.30;;;;;;5091706;28;20490;-72
2022/07/21 11:51:57;;;;;;;3.03;2.22;;;34.70;61.90;;;;;;5074967;28;20069;-72
2022/07/21 11:54:46;;;;;;;3.85;2.78;;;34.70;61.90;;;;;;5069618;28;20044;-71
2022/07/21 11:57:15;;;;;;;3.58;2.25;;;34.70;61.60;;;;;;5071949;28;20436;-72
2022/07/21 11:59:44;;;;;;;3.03;1.83;;;34.70;62.20;;;;;;5074658;28;20478;-72
2022/07/21 12:02:18;;;;;;;3.30;1.85;;;34.80;62.50;;;;;;5092519;28;20130;-72
2022/07/21 12:04:49;;;;;;;2.83;1.52;;;34.80;61.60;;;;;;5092499;28;20036;-72
2022/07/21 12:07:25;;;;;;;3.05;1.92;;;34.90;61.40;;;;;;5092423;28;20406;-73
2022/07/21 12:09:59;;;;;;;3.35;1.90;;;34.80;61.80;;;;;;5075433;28;20048;-72
2022/07/21 12:12:34;;;;;;;3.97;2.70;;;34.90;61.40;;;;;;5075684;28;20054;-72
2022/07/21 12:15:17;;;;;;;3.33;2.15;;;34.90;61.40;;;;;;5092427;28;20048;-72
2022/07/21 12:17:53;;;;;;;2.42;1.80;;;34.90;61.40;;;;;;5075352;28;20056;-72
2022/07/21 12:20:40;;;;;;;4.32;2.30;;;34.80;61.40;;;;;;5092013;28;20048;-71
2022/07/21 12:23:24;;;;;;;4.55;2.15;;;34.90;61.30;;;;;;5074825;28;20960;-72
2022/07/21 12:25:53;;;;;;;4.10;3.03;;;34.80;61.50;;;;;;5091653;28;20040;-72
2022/07/21 12:28:43;;;;;;;4.20;2.28;;;34.70;61.90;;;;;;5075299;28;20048;-71
2022/07/21 12:31:14;;;;;;;6.60;3.10;;;34.70;62.10;;;;;;5075008;28;20062;-72
2022/07/21 12:33:42;;;;;;;4.68;2.70;;;34.60;62.90;;;;;;5091695;28;20091;-72
2022/07/21 12:36:21;;;;;;;5.22;2.60;;;34.60;63.20;;;;;;5074877;28;20067;-73
2022/07/21 12:38:53;;;;;;;9.02;8.25;;;34.50;63.10;;;;;;5091935;28;20044;-72
2022/07/21 12:41:23;;;;;;;5.45;3.67;;;34.50;63.00;;;;;;5074065;28;20147;-72
2022/07/21 12:43:57;;;;;;;3.70;3.10;;;34.50;63.50;;;;;;5074850;28;20055;-73
2022/07/21 12:46:32;;;;;;;4.97;3.65;;;34.50;64.10;;;;;;5100729;28;20155;-72
2022/07/21 12:49:05;;;;;;;8.00;3.70;;;34.50;63.50;;;;;;5078961;28;20154;-73
2022/07/21 12:51:33;;;;;;;7.75;6.35;;;34.40;63.20;;;;;;5111126;28;20052;-72
2022/07/21 12:54:01;;;;;;;22.83;16.73;;;34.30;62.80;;;;;;5094946;28;20096;-72
2022/07/21 12:56:33;;;;;;;16.77;12.55;;;34.10;63.50;;;;;;5111083;28;20048;-72
2022/07/21 12:59:02;;;;;;;33.00;25.20;;;34.10;63.90;;;;;;5094659;28;20546;-73
2022/07/21 13:01:32;;;;;;;40.40;32.35;;;34.00;64.00;;;;;;5111061;28;20113;-72
2022/07/21 13:04:01;;;;;;;35.67;28.95;;;34.00;63.70;;;;;;5108001;28;20485;-72
2022/07/21 13:06:38;;;;;;;9.50;6.82;;;34.00;63.20;;;;;;5096281;28;20055;-72